sensor_id;sensor_type;location;lat;lon;timestamp;temperature;humidity
1405;DHT22;697;51.114;6.542;2022-08-19T00:01:35;22.00;65.70
1405;DHT22;697;51.114;6.542;2022-08-19T00:04:06;22.00;65.90
1405;DHT22;697;51.114;6.542;2022-08-19T00:06:34;22.00;66.40
1405;DHT22;697;51.114;6.542;2022-08-19T00:09:05;22.00;66.80
1405;DHT22;697;51.114;6.542;2022-08-19T00:11:32;21.90;67.10
1405;DHT22;697;51.114;6.542;2022-08-19T00:14:00;21.90;68.00
1405;DHT22;697;51.114;6.542;2022-08-19T00:16:27;21.80;67.10
1405;DHT22;697;51.114;6.542;2022-08-19T00:18:54;21.80;67.30
1405;DHT22;697;51.114;6.542;2022-08-19T00:21:21;21.80;67.70
1405;DHT22;697;51.114;6.542;2022-08-19T00:23:48;21.70;67.80
1405;DHT22;697;51.114;6.542;2022-08-19T00:26:16;21.70;68.20
1405;DHT22;697;51.114;6.542;2022-08-19T00:28:43;21.70;68.40
1405;DHT22;697;51.114;6.542;2022-08-19T00:31:10;21.70;68.60
1405;DHT22;697;51.114;6.542;2022-08-19T00:33:37;21.60;68.70
1405;DHT22;697;51.114;6.542;2022-08-19T00:36:06;21.60;68.90
1405;DHT22;697;51.114;6.542;2022-08-19T00:38:34;21.50;68.70
1405;DHT22;697;51.114;6.542;2022-08-19T00:41:01;21.50;68.80
1405;DHT22;697;51.114;6.542;2022-08-19T00:43:29;21.50;69.00
1405;DHT22;697;51.114;6.542;2022-08-19T00:45:56;21.50;69.10
1405;DHT22;697;51.114;6.542;2022-08-19T00:48:23;21.50;69.40
1405;DHT22;697;51.114;6.542;2022-08-19T00:50:50;21.50;69.40
1405;DHT22;697;51.114;6.542;2022-08-19T00:53:21;21.50;69.40
1405;DHT22;697;51.114;6.542;2022-08-19T00:55:51;21.40;69.40
1405;DHT22;697;51.114;6.542;2022-08-19T00:58:20;21.40;69.50
1405;DHT22;697;51.114;6.542;2022-08-19T01:00:49;21.40;69.80
1405;DHT22;697;51.114;6.542;2022-08-19T01:03:19;21.30;69.90
1405;DHT22;697;51.114;6.542;2022-08-19T01:05:47;21.30;70.30
1405;DHT22;697;51.114;6.542;2022-08-19T01:08:16;21.30;70.50
1405;DHT22;697;51.114;6.542;2022-08-19T01:10:48;21.30;70.60
1405;DHT22;697;51.114;6.542;2022-08-19T01:13:17;21.20;70.50
1405;DHT22;697;51.114;6.542;2022-08-19T01:15:47;21.20;70.50
1405;DHT22;697;51.114;6.542;2022-08-19T01:18:18;21.20;70.70
1405;DHT22;697;51.114;6.542;2022-08-19T01:20:46;21.10;70.50
1405;DHT22;697;51.114;6.542;2022-08-19T01:23:15;21.10;70.60
1405;DHT22;697;51.114;6.542;2022-08-19T01:25:45;21.10;71.10
1405;DHT22;697;51.114;6.542;2022-08-19T01:28:17;21.00;71.50
1405;DHT22;697;51.114;6.542;2022-08-19T01:30:45;20.90;71.50
1405;DHT22;697;51.114;6.542;2022-08-19T01:33:12;20.90;71.70
1405;DHT22;697;51.114;6.542;2022-08-19T01:35:39;20.90;71.90
1405;DHT22;697;51.114;6.542;2022-08-19T01:38:09;20.90;71.90
1405;DHT22;697;51.114;6.542;2022-08-19T01:40:46;20.90;71.90
1405;DHT22;697;51.114;6.542;2022-08-19T01:43:13;20.90;72.10
1405;DHT22;697;51.114;6.542;2022-08-19T01:45:41;20.90;72.30
1405;DHT22;697;51.114;6.542;2022-08-19T01:48:08;20.80;72.00
1405;DHT22;697;51.114;6.542;2022-08-19T01:50:36;20.70;72.50
1405;DHT22;697;51.114;6.542;2022-08-19T01:53:05;20.70;73.20
1405;DHT22;697;51.114;6.542;2022-08-19T01:55:33;20.70;73.90
1405;DHT22;697;51.114;6.542;2022-08-19T01:58:04;20.60;73.90
1405;DHT22;697;51.114;6.542;2022-08-19T02:00:32;20.60;74.10
1405;DHT22;697;51.114;6.542;2022-08-19T02:02:59;20.40;73.80
1405;DHT22;697;51.114;6.542;2022-08-19T02:05:27;20.40;74.30
1405;DHT22;697;51.114;6.542;2022-08-19T02:07:55;20.40;74.70
1405;DHT22;697;51.114;6.542;2022-08-19T02:10:22;20.30;74.80
1405;DHT22;697;51.114;6.542;2022-08-19T02:12:50;20.30;75.10
1405;DHT22;697;51.114;6.542;2022-08-19T02:15:19;20.30;75.20
1405;DHT22;697;51.114;6.542;2022-08-19T02:17:46;20.30;75.20
1405;DHT22;697;51.114;6.542;2022-08-19T02:20:13;20.30;75.30
1405;DHT22;697;51.114;6.542;2022-08-19T02:22:41;20.30;75.60
1405;DHT22;697;51.114;6.542;2022-08-19T02:25:09;20.30;75.90
1405;DHT22;697;51.114;6.542;2022-08-19T02:27:36;20.20;76.10
1405;DHT22;697;51.114;6.542;2022-08-19T02:30:05;20.10;76.80
1405;DHT22;697;51.114;6.542;2022-08-19T02:32:33;20.10;77.60
1405;DHT22;697;51.114;6.542;2022-08-19T02:35:00;20.10;78.50
1405;DHT22;697;51.114;6.542;2022-08-19T02:37:27;20.10;79.50
1405;DHT22;697;51.114;6.542;2022-08-19T02:40:11;20.10;80.40
1405;DHT22;697;51.114;6.542;2022-08-19T02:42:39;20.20;81.50
1405;DHT22;697;51.114;6.542;2022-08-19T02:45:07;20.30;81.50
1405;DHT22;697;51.114;6.542;2022-08-19T02:47:35;20.30;81.20
1405;DHT22;697;51.114;6.542;2022-08-19T02:50:03;20.40;80.80
1405;DHT22;697;51.114;6.542;2022-08-19T02:52:32;20.40;80.50
1405;DHT22;697;51.114;6.542;2022-08-19T02:54:59;20.50;81.20
1405;DHT22;697;51.114;6.542;2022-08-19T02:57:26;20.50;82.00
1405;DHT22;697;51.114;6.542;2022-08-19T02:59:54;20.60;82.40
1405;DHT22;697;51.114;6.542;2022-08-19T03:02:20;20.60;82.40
1405;DHT22;697;51.114;6.542;2022-08-19T03:04:49;20.60;82.90
1405;DHT22;697;51.114;6.542;2022-08-19T03:07:17;20.70;83.70
1405;DHT22;697;51.114;6.542;2022-08-19T03:09:45;20.70;83.90
1405;DHT22;697;51.114;6.542;2022-08-19T03:12:11;20.70;84.10
1405;DHT22;697;51.114;6.542;2022-08-19T03:14:38;20.70;84.00
1405;DHT22;697;51.114;6.542;2022-08-19T03:17:05;20.70;83.70
1405;DHT22;697;51.114;6.542;2022-08-19T03:19:33;20.70;83.40
1405;DHT22;697;51.114;6.542;2022-08-19T03:22:02;20.70;83.40
1405;DHT22;697;51.114;6.542;2022-08-19T03:24:30;20.70;83.40
1405;DHT22;697;51.114;6.542;2022-08-19T03:26:57;20.70;83.60
1405;DHT22;697;51.114;6.542;2022-08-19T03:29:25;20.70;83.80
1405;DHT22;697;51.114;6.542;2022-08-19T03:31:52;20.70;84.00
1405;DHT22;697;51.114;6.542;2022-08-19T03:34:22;20.80;84.20
1405;DHT22;697;51.114;6.542;2022-08-19T03:36:51;20.80;84.50
1405;DHT22;697;51.114;6.542;2022-08-19T03:39:21;20.70;84.50
1405;DHT22;697;51.114;6.542;2022-08-19T03:41:49;20.80;85.40
1405;DHT22;697;51.114;6.542;2022-08-19T03:44:19;20.80;84.40
1405;DHT22;697;51.114;6.542;2022-08-19T03:46:46;20.80;84.20
1405;DHT22;697;51.114;6.542;2022-08-19T03:49:14;20.80;84.00
1405;DHT22;697;51.114;6.542;2022-08-19T03:51:42;20.80;83.90
1405;DHT22;697;51.114;6.542;2022-08-19T03:54:11;20.70;83.40
1405;DHT22;697;51.114;6.542;2022-08-19T03:56:42;20.70;83.50
1405;DHT22;697;51.114;6.542;2022-08-19T03:59:14;20.70;83.50
1405;DHT22;697;51.114;6.542;2022-08-19T04:01:41;20.70;83.40
1405;DHT22;697;51.114;6.542;2022-08-19T04:04:08;20.70;83.30
1405;DHT22;697;51.114;6.542;2022-08-19T04:06:37;20.70;83.40
1405;DHT22;697;51.114;6.542;2022-08-19T04:09:07;20.60;83.50
1405;DHT22;697;51.114;6.542;2022-08-19T04:11:35;20.60;83.30
1405;DHT22;697;51.114;6.542;2022-08-19T04:14:08;20.60;83.20
1405;DHT22;697;51.114;6.542;2022-08-19T04:16:35;20.60;84.50
1405;DHT22;697;51.114;6.542;2022-08-19T04:19:03;20.50;84.00
1405;DHT22;697;51.114;6.542;2022-08-19T04:21:31;20.50;84.50
1405;DHT22;697;51.114;6.542;2022-08-19T04:23:58;20.50;85.50
1405;DHT22;697;51.114;6.542;2022-08-19T04:26:27;20.50;86.00
1405;DHT22;697;51.114;6.542;2022-08-19T04:28:54;20.50;86.00
1405;DHT22;697;51.114;6.542;2022-08-19T04:31:25;20.50;86.00
1405;DHT22;697;51.114;6.542;2022-08-19T04:33:52;20.40;85.80
1405;DHT22;697;51.114;6.542;2022-08-19T04:36:21;20.50;85.70
1405;DHT22;697;51.114;6.542;2022-08-19T04:38:48;20.50;85.40
1405;DHT22;697;51.114;6.542;2022-08-19T04:41:16;20.50;85.30
1405;DHT22;697;51.114;6.542;2022-08-19T04:44:00;20.50;85.40
1405;DHT22;697;51.114;6.542;2022-08-19T04:46:29;20.50;85.60
1405;DHT22;697;51.114;6.542;2022-08-19T04:48:57;20.50;85.50
1405;DHT22;697;51.114;6.542;2022-08-19T04:51:25;20.50;85.60
1405;DHT22;697;51.114;6.542;2022-08-19T04:53:52;20.50;85.60
1405;DHT22;697;51.114;6.542;2022-08-19T04:56:20;20.50;86.00
1405;DHT22;697;51.114;6.542;2022-08-19T04:58:48;20.50;86.40
1405;DHT22;697;51.114;6.542;2022-08-19T05:01:19;20.50;87.00
1405;DHT22;697;51.114;6.542;2022-08-19T05:03:48;20.50;86.80
1405;DHT22;697;51.114;6.542;2022-08-19T05:06:16;20.50;87.10
1405;DHT22;697;51.114;6.542;2022-08-19T05:08:44;20.50;87.90
1405;DHT22;697;51.114;6.542;2022-08-19T05:11:13;20.50;88.60
1405;DHT22;697;51.114;6.542;2022-08-19T05:13:40;20.50;89.30
1405;DHT22;697;51.114;6.542;2022-08-19T05:16:10;20.50;90.00
1405;DHT22;697;51.114;6.542;2022-08-19T05:18:37;20.50;90.40
1405;DHT22;697;51.114;6.542;2022-08-19T05:21:23;20.50;90.70
1405;DHT22;697;51.114;6.542;2022-08-19T05:24:08;20.50;90.80
1405;DHT22;697;51.114;6.542;2022-08-19T05:26:35;20.50;90.70
1405;DHT22;697;51.114;6.542;2022-08-19T05:29:01;20.60;90.90
1405;DHT22;697;51.114;6.542;2022-08-19T05:31:28;20.60;91.20
1405;DHT22;697;51.114;6.542;2022-08-19T05:33:55;20.60;91.60
1405;DHT22;697;51.114;6.542;2022-08-19T05:36:25;20.60;92.30
1405;DHT22;697;51.114;6.542;2022-08-19T05:38:52;20.50;92.60
1405;DHT22;697;51.114;6.542;2022-08-19T05:41:20;20.50;92.80
1405;DHT22;697;51.114;6.542;2022-08-19T05:43:48;20.50;93.20
1405;DHT22;697;51.114;6.542;2022-08-19T05:46:18;20.50;93.30
1405;DHT22;697;51.114;6.542;2022-08-19T05:48:45;20.50;93.50
1405;DHT22;697;51.114;6.542;2022-08-19T05:51:12;20.50;93.60
1405;DHT22;697;51.114;6.542;2022-08-19T05:53:40;20.50;93.80
1405;DHT22;697;51.114;6.542;2022-08-19T05:56:09;20.50;93.90
1405;DHT22;697;51.114;6.542;2022-08-19T05:58:37;20.50;94.00
1405;DHT22;697;51.114;6.542;2022-08-19T06:01:08;20.50;94.00
1405;DHT22;697;51.114;6.542;2022-08-19T06:03:36;20.50;94.00
1405;DHT22;697;51.114;6.542;2022-08-19T06:06:05;20.60;94.00
1405;DHT22;697;51.114;6.542;2022-08-19T06:08:33;20.70;94.00
1405;DHT22;697;51.114;6.542;2022-08-19T06:11:15;20.80;93.90
1405;DHT22;697;51.114;6.542;2022-08-19T06:13:44;20.90;93.60
1405;DHT22;697;51.114;6.542;2022-08-19T06:16:12;21.00;93.40
1405;DHT22;697;51.114;6.542;2022-08-19T06:18:48;21.00;93.40
1405;DHT22;697;51.114;6.542;2022-08-19T06:21:17;21.20;93.20
1405;DHT22;697;51.114;6.542;2022-08-19T06:23:44;21.20;93.20
1405;DHT22;697;51.114;6.542;2022-08-19T06:26:14;21.20;93.20
1405;DHT22;697;51.114;6.542;2022-08-19T06:28:42;21.20;93.30
1405;DHT22;697;51.114;6.542;2022-08-19T06:31:13;21.20;93.40
1405;DHT22;697;51.114;6.542;2022-08-19T06:33:40;21.30;93.50
1405;DHT22;697;51.114;6.542;2022-08-19T06:36:08;21.20;93.30
1405;DHT22;697;51.114;6.542;2022-08-19T06:38:41;21.20;93.70
1405;DHT22;697;51.114;6.542;2022-08-19T06:41:09;21.30;93.80
1405;DHT22;697;51.114;6.542;2022-08-19T06:43:37;21.30;93.80
1405;DHT22;697;51.114;6.542;2022-08-19T06:46:10;21.30;93.80
1405;DHT22;697;51.114;6.542;2022-08-19T06:48:37;21.30;93.70
1405;DHT22;697;51.114;6.542;2022-08-19T06:51:04;21.30;93.60
1405;DHT22;697;51.114;6.542;2022-08-19T06:53:31;21.40;93.90
1405;DHT22;697;51.114;6.542;2022-08-19T06:55:58;21.40;94.00
1405;DHT22;697;51.114;6.542;2022-08-19T06:58:28;21.50;94.00
1405;DHT22;697;51.114;6.542;2022-08-19T07:00:59;21.50;93.80
1405;DHT22;697;51.114;6.542;2022-08-19T07:03:29;21.60;93.90
1405;DHT22;697;51.114;6.542;2022-08-19T07:05:56;21.70;93.90
1405;DHT22;697;51.114;6.542;2022-08-19T07:08:24;21.70;93.80
1405;DHT22;697;51.114;6.542;2022-08-19T07:10:52;21.80;93.70
1405;DHT22;697;51.114;6.542;2022-08-19T07:13:20;22.00;93.30
1405;DHT22;697;51.114;6.542;2022-08-19T07:15:48;22.10;93.20
1405;DHT22;697;51.114;6.542;2022-08-19T07:18:17;22.20;92.90
1405;DHT22;697;51.114;6.542;2022-08-19T07:20:44;22.20;92.20
1405;DHT22;697;51.114;6.542;2022-08-19T07:23:11;22.20;91.90
1405;DHT22;697;51.114;6.542;2022-08-19T07:25:39;22.20;91.70
1405;DHT22;697;51.114;6.542;2022-08-19T07:28:06;22.30;91.90
1405;DHT22;697;51.114;6.542;2022-08-19T07:30:36;22.40;91.50
1405;DHT22;697;51.114;6.542;2022-08-19T07:33:03;22.60;91.50
1405;DHT22;697;51.114;6.542;2022-08-19T07:35:31;22.70;90.90
1405;DHT22;697;51.114;6.542;2022-08-19T07:37:59;22.80;90.50
1405;DHT22;697;51.114;6.542;2022-08-19T07:40:28;23.00;90.00
1405;DHT22;697;51.114;6.542;2022-08-19T07:42:54;23.10;89.50
1405;DHT22;697;51.114;6.542;2022-08-19T07:45:21;23.10;88.40
1405;DHT22;697;51.114;6.542;2022-08-19T07:47:48;23.30;87.50
1405;DHT22;697;51.114;6.542;2022-08-19T07:50:16;23.40;87.30
1405;DHT22;697;51.114;6.542;2022-08-19T07:52:45;23.50;84.80
1405;DHT22;697;51.114;6.542;2022-08-19T07:55:12;23.50;84.50
1405;DHT22;697;51.114;6.542;2022-08-19T07:57:39;23.50;83.60
1405;DHT22;697;51.114;6.542;2022-08-19T08:00:07;23.60;82.20
1405;DHT22;697;51.114;6.542;2022-08-19T08:02:34;23.60;82.30
1405;DHT22;697;51.114;6.542;2022-08-19T08:05:00;23.60;82.00
1405;DHT22;697;51.114;6.542;2022-08-19T08:07:46;23.60;80.30
1405;DHT22;697;51.114;6.542;2022-08-19T08:10:30;23.50;80.00
1405;DHT22;697;51.114;6.542;2022-08-19T08:12:57;23.50;80.80
1405;DHT22;697;51.114;6.542;2022-08-19T08:15:24;23.50;80.80
1405;DHT22;697;51.114;6.542;2022-08-19T08:17:51;23.50;80.00
1405;DHT22;697;51.114;6.542;2022-08-19T08:20:18;23.50;79.40
1405;DHT22;697;51.114;6.542;2022-08-19T08:22:47;23.60;78.40
1405;DHT22;697;51.114;6.542;2022-08-19T08:25:32;23.60;76.70
1405;DHT22;697;51.114;6.542;2022-08-19T08:28:02;23.70;76.80
1405;DHT22;697;51.114;6.542;2022-08-19T08:30:30;23.80;76.30
1405;DHT22;697;51.114;6.542;2022-08-19T08:32:58;23.90;76.50
1405;DHT22;697;51.114;6.542;2022-08-19T08:35:25;24.00;76.30
1405;DHT22;697;51.114;6.542;2022-08-19T08:37:54;24.20;75.40
1405;DHT22;697;51.114;6.542;2022-08-19T08:40:28;24.30;74.50
1405;DHT22;697;51.114;6.542;2022-08-19T08:42:58;24.50;74.30
1405;DHT22;697;51.114;6.542;2022-08-19T08:45:30;24.70;71.60
1405;DHT22;697;51.114;6.542;2022-08-19T08:48:02;24.90;71.80
1405;DHT22;697;51.114;6.542;2022-08-19T08:50:37;25.10;71.00
1405;DHT22;697;51.114;6.542;2022-08-19T08:53:06;25.20;70.10
1405;DHT22;697;51.114;6.542;2022-08-19T08:55:34;25.40;69.40
1405;DHT22;697;51.114;6.542;2022-08-19T08:58:03;25.50;69.60
1405;DHT22;697;51.114;6.542;2022-08-19T09:00:33;25.70;68.00
1405;DHT22;697;51.114;6.542;2022-08-19T09:03:01;25.80;62.50
1405;DHT22;697;51.114;6.542;2022-08-19T09:05:35;25.90;61.70
1405;DHT22;697;51.114;6.542;2022-08-19T09:08:08;26.10;61.50
1405;DHT22;697;51.114;6.542;2022-08-19T09:10:39;26.20;60.50
1405;DHT22;697;51.114;6.542;2022-08-19T09:13:12;26.40;61.00
1405;DHT22;697;51.114;6.542;2022-08-19T09:15:44;26.60;59.40
1405;DHT22;697;51.114;6.542;2022-08-19T09:18:11;26.70;58.50
1405;DHT22;697;51.114;6.542;2022-08-19T09:20:38;26.90;57.90
1405;DHT22;697;51.114;6.542;2022-08-19T09:23:05;27.00;57.40
1405;DHT22;697;51.114;6.542;2022-08-19T09:25:33;27.00;56.50
1405;DHT22;697;51.114;6.542;2022-08-19T09:28:00;27.20;56.60
1405;DHT22;697;51.114;6.542;2022-08-19T09:30:34;27.30;55.30
1405;DHT22;697;51.114;6.542;2022-08-19T09:33:01;27.30;55.40
1405;DHT22;697;51.114;6.542;2022-08-19T09:35:29;27.40;55.50
1405;DHT22;697;51.114;6.542;2022-08-19T09:37:57;27.40;55.60
1405;DHT22;697;51.114;6.542;2022-08-19T09:40:25;27.30;55.40
1405;DHT22;697;51.114;6.542;2022-08-19T09:42:53;27.40;55.70
1405;DHT22;697;51.114;6.542;2022-08-19T09:45:21;27.30;55.50
1405;DHT22;697;51.114;6.542;2022-08-19T09:47:49;27.30;55.80
1405;DHT22;697;51.114;6.542;2022-08-19T09:50:17;27.40;56.80
1405;DHT22;697;51.114;6.542;2022-08-19T09:52:44;27.60;56.70
1405;DHT22;697;51.114;6.542;2022-08-19T09:55:11;27.70;55.40
1405;DHT22;697;51.114;6.542;2022-08-19T09:57:38;27.80;55.10
1405;DHT22;697;51.114;6.542;2022-08-19T10:00:09;27.90;54.10
1405;DHT22;697;51.114;6.542;2022-08-19T10:02:36;27.90;54.10
1405;DHT22;697;51.114;6.542;2022-08-19T10:05:04;27.90;53.30
1405;DHT22;697;51.114;6.542;2022-08-19T10:07:48;28.00;53.80
1405;DHT22;697;51.114;6.542;2022-08-19T10:10:15;28.20;53.30
1405;DHT22;697;51.114;6.542;2022-08-19T10:12:42;28.30;52.20
1405;DHT22;697;51.114;6.542;2022-08-19T10:15:14;28.20;51.90
1405;DHT22;697;51.114;6.542;2022-08-19T10:17:41;28.20;52.40
1405;DHT22;697;51.114;6.542;2022-08-19T10:20:09;28.20;52.80
1405;DHT22;697;51.114;6.542;2022-08-19T10:22:36;28.20;52.20
1405;DHT22;697;51.114;6.542;2022-08-19T10:25:05;28.10;52.20
1405;DHT22;697;51.114;6.542;2022-08-19T10:27:32;28.10;52.40
1405;DHT22;697;51.114;6.542;2022-08-19T10:29:58;28.30;52.20
1405;DHT22;697;51.114;6.542;2022-08-19T10:32:27;28.60;50.70
1405;DHT22;697;51.114;6.542;2022-08-19T10:34:54;29.10;49.70
1405;DHT22;697;51.114;6.542;2022-08-19T10:37:21;29.70;48.60
1405;DHT22;697;51.114;6.542;2022-08-19T10:39:48;30.30;46.80
1405;DHT22;697;51.114;6.542;2022-08-19T10:42:15;31.00;45.30
1405;DHT22;697;51.114;6.542;2022-08-19T10:44:44;31.80;43.60
1405;DHT22;697;51.114;6.542;2022-08-19T10:47:12;32.60;41.80
1405;DHT22;697;51.114;6.542;2022-08-19T10:49:40;32.60;40.10
1405;DHT22;697;51.114;6.542;2022-08-19T10:52:20;32.20;40.30
1405;DHT22;697;51.114;6.542;2022-08-19T10:55:04;31.60;42.00
1405;DHT22;697;51.114;6.542;2022-08-19T10:57:48;31.20;43.00
1405;DHT22;697;51.114;6.542;2022-08-19T11:00:15;31.00;43.60
1405;DHT22;697;51.114;6.542;2022-08-19T11:02:43;30.90;43.30
1405;DHT22;697;51.114;6.542;2022-08-19T11:05:11;31.00;44.10
1405;DHT22;697;51.114;6.542;2022-08-19T11:07:39;31.00;42.80
1405;DHT22;697;51.114;6.542;2022-08-19T11:10:08;31.00;42.40
1405;DHT22;697;51.114;6.542;2022-08-19T11:12:36;31.20;43.70
1405;DHT22;697;51.114;6.542;2022-08-19T11:15:05;31.70;42.50
1405;DHT22;697;51.114;6.542;2022-08-19T11:17:33;31.90;40.20
1405;DHT22;697;51.114;6.542;2022-08-19T11:19:59;31.80;40.80
1405;DHT22;697;51.114;6.542;2022-08-19T11:22:31;31.70;40.80
1405;DHT22;697;51.114;6.542;2022-08-19T11:24:58;32.20;40.40
1405;DHT22;697;51.114;6.542;2022-08-19T11:27:24;33.10;38.50
1405;DHT22;697;51.114;6.542;2022-08-19T11:29:51;33.80;37.40
1405;DHT22;697;51.114;6.542;2022-08-19T11:32:18;34.50;37.00
1405;DHT22;697;51.114;6.542;2022-08-19T11:34:45;35.00;33.60
1405;DHT22;697;51.114;6.542;2022-08-19T11:37:12;35.70;32.70
1405;DHT22;697;51.114;6.542;2022-08-19T11:39:40;35.90;31.70
1405;DHT22;697;51.114;6.542;2022-08-19T11:42:07;35.70;31.60
1405;DHT22;697;51.114;6.542;2022-08-19T11:44:48;35.70;31.70
1405;DHT22;697;51.114;6.542;2022-08-19T11:47:15;36.10;31.20
1405;DHT22;697;51.114;6.542;2022-08-19T11:49:42;35.90;31.00
1405;DHT22;697;51.114;6.542;2022-08-19T11:52:08;35.80;31.60
1405;DHT22;697;51.114;6.542;2022-08-19T11:54:37;35.60;30.10
1405;DHT22;697;51.114;6.542;2022-08-19T11:57:06;35.90;30.20
1405;DHT22;697;51.114;6.542;2022-08-19T11:59:32;36.40;30.00
1405;DHT22;697;51.114;6.542;2022-08-19T12:01:59;36.90;28.90
1405;DHT22;697;51.114;6.542;2022-08-19T12:04:26;37.30;28.60
1405;DHT22;697;51.114;6.542;2022-08-19T12:06:53;37.70;28.10
1405;DHT22;697;51.114;6.542;2022-08-19T12:09:20;38.30;27.60
1405;DHT22;697;51.114;6.542;2022-08-19T12:11:47;38.70;26.80
1405;DHT22;697;51.114;6.542;2022-08-19T12:14:15;39.20;26.80
1405;DHT22;697;51.114;6.542;2022-08-19T12:16:44;39.40;25.30
1405;DHT22;697;51.114;6.542;2022-08-19T12:19:11;39.10;24.90
1405;DHT22;697;51.114;6.542;2022-08-19T12:21:38;39.20;25.10
1405;DHT22;697;51.114;6.542;2022-08-19T12:24:06;39.40;24.80
1405;DHT22;697;51.114;6.542;2022-08-19T12:26:33;39.70;24.30
1405;DHT22;697;51.114;6.542;2022-08-19T12:29:00;39.70;23.40
1405;DHT22;697;51.114;6.542;2022-08-19T12:31:28;39.90;24.60
1405;DHT22;697;51.114;6.542;2022-08-19T12:33:56;40.20;23.60
1405;DHT22;697;51.114;6.542;2022-08-19T12:36:23;40.60;23.80
1405;DHT22;697;51.114;6.542;2022-08-19T12:38:51;41.00;23.20
1405;DHT22;697;51.114;6.542;2022-08-19T12:41:18;41.40;23.40
1405;DHT22;697;51.114;6.542;2022-08-19T12:43:48;41.80;23.20
1405;DHT22;697;51.114;6.542;2022-08-19T12:46:16;41.60;22.20
1405;DHT22;697;51.114;6.542;2022-08-19T12:48:44;41.50;23.00
1405;DHT22;697;51.114;6.542;2022-08-19T12:51:14;41.60;22.30
1405;DHT22;697;51.114;6.542;2022-08-19T12:53:41;41.80;22.40
1405;DHT22;697;51.114;6.542;2022-08-19T12:56:10;42.00;21.70
1405;DHT22;697;51.114;6.542;2022-08-19T12:58:39;42.20;21.20
1405;DHT22;697;51.114;6.542;2022-08-19T13:01:08;42.50;21.20
1405;DHT22;697;51.114;6.542;2022-08-19T13:03:35;42.60;20.30
1405;DHT22;697;51.114;6.542;2022-08-19T13:06:04;43.00;20.50
1405;DHT22;697;51.114;6.542;2022-08-19T13:08:31;43.10;20.10
1405;DHT22;697;51.114;6.542;2022-08-19T13:11:06;43.50;20.40
1405;DHT22;697;51.114;6.542;2022-08-19T13:13:33;43.80;18.90
1405;DHT22;697;51.114;6.542;2022-08-19T13:16:00;43.80;19.30
1405;DHT22;697;51.114;6.542;2022-08-19T13:18:28;43.90;18.60
1405;DHT22;697;51.114;6.542;2022-08-19T13:20:55;43.50;18.40
1405;DHT22;697;51.114;6.542;2022-08-19T13:23:23;43.00;19.20
1405;DHT22;697;51.114;6.542;2022-08-19T13:25:57;43.00;19.30
1405;DHT22;697;51.114;6.542;2022-08-19T13:28:24;43.30;19.60
1405;DHT22;697;51.114;6.542;2022-08-19T13:30:51;43.50;19.10
1405;DHT22;697;51.114;6.542;2022-08-19T13:33:35;43.50;18.50
1405;DHT22;697;51.114;6.542;2022-08-19T13:36:02;43.50;18.60
1405;DHT22;697;51.114;6.542;2022-08-19T13:38:34;43.40;18.40
1405;DHT22;697;51.114;6.542;2022-08-19T13:41:05;43.40;19.20
1405;DHT22;697;51.114;6.542;2022-08-19T13:43:32;43.80;19.20
1405;DHT22;697;51.114;6.542;2022-08-19T13:45:59;44.40;18.20
1405;DHT22;697;51.114;6.542;2022-08-19T13:48:27;44.90;17.20
1405;DHT22;697;51.114;6.542;2022-08-19T13:50:56;45.40;17.20
1405;DHT22;697;51.114;6.542;2022-08-19T13:53:24;45.70;17.30
1405;DHT22;697;51.114;6.542;2022-08-19T13:55:52;45.70;17.20
1405;DHT22;697;51.114;6.542;2022-08-19T13:58:19;46.00;16.80
1405;DHT22;697;51.114;6.542;2022-08-19T14:00:46;46.30;16.30
1405;DHT22;697;51.114;6.542;2022-08-19T14:03:13;46.60;16.30
1405;DHT22;697;51.114;6.542;2022-08-19T14:05:40;46.70;15.70
1405;DHT22;697;51.114;6.542;2022-08-19T14:08:07;46.60;15.90
1405;DHT22;697;51.114;6.542;2022-08-19T14:10:34;46.10;15.40
1405;DHT22;697;51.114;6.542;2022-08-19T14:13:03;45.70;16.60
1405;DHT22;697;51.114;6.542;2022-08-19T14:15:30;45.20;16.00
1405;DHT22;697;51.114;6.542;2022-08-19T14:17:57;44.70;16.40
1405;DHT22;697;51.114;6.542;2022-08-19T14:20:25;44.50;17.10
1405;DHT22;697;51.114;6.542;2022-08-19T14:22:52;44.30;17.20
1405;DHT22;697;51.114;6.542;2022-08-19T14:25:21;44.20;17.30
1405;DHT22;697;51.114;6.542;2022-08-19T14:27:49;44.10;17.80
1405;DHT22;697;51.114;6.542;2022-08-19T14:30:19;44.30;18.10
1405;DHT22;697;51.114;6.542;2022-08-19T14:32:46;44.30;17.70
1405;DHT22;697;51.114;6.542;2022-08-19T14:35:14;43.30;18.40
1405;DHT22;697;51.114;6.542;2022-08-19T14:37:42;42.00;19.70
1405;DHT22;697;51.114;6.542;2022-08-19T14:40:10;41.00;21.50
1405;DHT22;697;51.114;6.542;2022-08-19T14:42:37;40.90;21.60
1405;DHT22;697;51.114;6.542;2022-08-19T14:45:05;40.80;21.90
1405;DHT22;697;51.114;6.542;2022-08-19T14:47:33;41.10;21.70
1405;DHT22;697;51.114;6.542;2022-08-19T14:50:00;41.30;21.00
1405;DHT22;697;51.114;6.542;2022-08-19T14:52:27;41.50;20.70
1405;DHT22;697;51.114;6.542;2022-08-19T14:54:54;41.60;20.40
1405;DHT22;697;51.114;6.542;2022-08-19T14:57:20;41.40;21.00
1405;DHT22;697;51.114;6.542;2022-08-19T14:59:47;41.10;21.60
1405;DHT22;697;51.114;6.542;2022-08-19T15:02:14;40.40;22.40
1405;DHT22;697;51.114;6.542;2022-08-19T15:04:42;39.20;23.60
1405;DHT22;697;51.114;6.542;2022-08-19T15:07:10;37.80;25.60
1405;DHT22;697;51.114;6.542;2022-08-19T15:09:37;36.70;27.30
1405;DHT22;697;51.114;6.542;2022-08-19T15:12:04;35.80;28.50
1405;DHT22;697;51.114;6.542;2022-08-19T15:14:31;35.00;30.00
1405;DHT22;697;51.114;6.542;2022-08-19T15:17:00;34.40;31.10
1405;DHT22;697;51.114;6.542;2022-08-19T15:19:27;33.80;32.10
1405;DHT22;697;51.114;6.542;2022-08-19T15:21:56;33.60;33.10
1405;DHT22;697;51.114;6.542;2022-08-19T15:24:23;33.90;32.80
1405;DHT22;697;51.114;6.542;2022-08-19T15:26:51;34.20;33.00
1405;DHT22;697;51.114;6.542;2022-08-19T15:29:18;34.40;33.00
1405;DHT22;697;51.114;6.542;2022-08-19T15:31:44;34.40;32.70
1405;DHT22;697;51.114;6.542;2022-08-19T15:34:11;34.30;32.70
1405;DHT22;697;51.114;6.542;2022-08-19T15:36:38;34.10;33.00
1405;DHT22;697;51.114;6.542;2022-08-19T15:39:06;33.90;33.30
1405;DHT22;697;51.114;6.542;2022-08-19T15:41:34;33.70;33.60
1405;DHT22;697;51.114;6.542;2022-08-19T15:44:03;33.40;34.10
1405;DHT22;697;51.114;6.542;2022-08-19T15:46:34;33.10;34.70
1405;DHT22;697;51.114;6.542;2022-08-19T15:49:02;32.70;35.40
1405;DHT22;697;51.114;6.542;2022-08-19T15:51:32;32.30;36.40
1405;DHT22;697;51.114;6.542;2022-08-19T15:54:00;31.90;37.20
1405;DHT22;697;51.114;6.542;2022-08-19T15:56:28;31.50;38.20
1405;DHT22;697;51.114;6.542;2022-08-19T15:59:09;31.30;39.00
1405;DHT22;697;51.114;6.542;2022-08-19T16:01:54;31.20;39.70
1405;DHT22;697;51.114;6.542;2022-08-19T16:04:38;31.00;40.30
1405;DHT22;697;51.114;6.542;2022-08-19T16:07:22;30.90;40.30
1405;DHT22;697;51.114;6.542;2022-08-19T16:09:48;30.80;40.60
1405;DHT22;697;51.114;6.542;2022-08-19T16:12:17;30.60;41.20
1405;DHT22;697;51.114;6.542;2022-08-19T16:14:44;30.40;41.80
1405;DHT22;697;51.114;6.542;2022-08-19T16:17:12;30.30;42.20
1405;DHT22;697;51.114;6.542;2022-08-19T16:19:39;30.10;42.60
1405;DHT22;697;51.114;6.542;2022-08-19T16:22:05;30.00;43.10
1405;DHT22;697;51.114;6.542;2022-08-19T16:24:34;29.80;43.70
1405;DHT22;697;51.114;6.542;2022-08-19T16:27:01;29.60;44.10